Terminal Aerodrome Forecast
Issued by NWS Sioux Falls, SD

Home | Current Version | Previous Version | Text Only | Print | Product List | Glossary On
Versions: 1 2 3 4 5 6 7 8 9 10 11 12 13 14 15 16 17 18 19
713
FTUS43 KFSD 240535
TAFHON
TAF
KHON 240535Z 2406/2506 VRB03KT 3/4SM BR OVC002
     FM241000 14003KT 1SM BR OVC090
     FM241400 VRB03KT 2SM -SN OVC008
     FM241500 12006KT 3/4SM -SN OVC004
     FM242000 09006KT 1 1/2SM -SN OVC008
     FM242300 VRB03KT P6SM OVC020
     FM250300 28006KT P6SM BKN035=

USA.gov is the U.S. government's official web portal to all federal, state and local government web resources and services.